sensor_id;sensor_type;location;lat;lon;timestamp;P1;durP1;ratioP1;P2;durP2;ratioP2
40252;SDS011;25972;51.854;4.534;2023-05-10T00:01:12;16.73;;;6.35;;
40252;SDS011;25972;51.854;4.534;2023-05-10T00:03:38;19.02;;;6.72;;
40252;SDS011;25972;51.854;4.534;2023-05-10T00:06:05;15.93;;;6.60;;
40252;SDS011;25972;51.854;4.534;2023-05-10T00:08:32;16.10;;;6.40;;
40252;SDS011;25972;51.854;4.534;2023-05-10T00:10:58;14.10;;;5.75;;
40252;SDS011;25972;51.854;4.534;2023-05-10T00:13:23;15.98;;;7.32;;
40252;SDS011;25972;51.854;4.534;2023-05-10T00:15:49;20.08;;;7.20;;
40252;SDS011;25972;51.854;4.534;2023-05-10T00:18:15;19.90;;;7.72;;
40252;SDS011;25972;51.854;4.534;2023-05-10T00:20:41;16.17;;;6.85;;
40252;SDS011;25972;51.854;4.534;2023-05-10T00:23:07;18.38;;;7.35;;
40252;SDS011;25972;51.854;4.534;2023-05-10T00:25:33;21.90;;;7.57;;
40252;SDS011;25972;51.854;4.534;2023-05-10T00:27:59;18.50;;;8.32;;
40252;SDS011;25972;51.854;4.534;2023-05-10T00:30:26;19.67;;;8.27;;
40252;SDS011;25972;51.854;4.534;2023-05-10T00:32:53;24.20;;;7.93;;
40252;SDS011;25972;51.854;4.534;2023-05-10T00:35:19;16.50;;;6.65;;
40252;SDS011;25972;51.854;4.534;2023-05-10T00:37:46;18.33;;;6.78;;
40252;SDS011;25972;51.854;4.534;2023-05-10T00:40:13;24.60;;;8.57;;
40252;SDS011;25972;51.854;4.534;2023-05-10T00:42:42;15.13;;;6.30;;
40252;SDS011;25972;51.854;4.534;2023-05-10T00:45:08;20.45;;;5.82;;
40252;SDS011;25972;51.854;4.534;2023-05-10T00:47:34;21.83;;;8.05;;
40252;SDS011;25972;51.854;4.534;2023-05-10T00:50:01;18.77;;;7.88;;
40252;SDS011;25972;51.854;4.534;2023-05-10T00:52:28;19.25;;;6.85;;
40252;SDS011;25972;51.854;4.534;2023-05-10T00:54:56;21.13;;;7.22;;
40252;SDS011;25972;51.854;4.534;2023-05-10T00:57:22;17.92;;;7.35;;
40252;SDS011;25972;51.854;4.534;2023-05-10T00:59:48;20.92;;;7.72;;
40252;SDS011;25972;51.854;4.534;2023-05-10T01:02:14;16.90;;;6.18;;
40252;SDS011;25972;51.854;4.534;2023-05-10T01:04:40;15.40;;;6.03;;
40252;SDS011;25972;51.854;4.534;2023-05-10T01:07:06;18.58;;;6.93;;
40252;SDS011;25972;51.854;4.534;2023-05-10T01:09:32;18.73;;;5.63;;
40252;SDS011;25972;51.854;4.534;2023-05-10T01:11:59;17.48;;;7.47;;
40252;SDS011;25972;51.854;4.534;2023-05-10T01:14:28;19.00;;;7.28;;
40252;SDS011;25972;51.854;4.534;2023-05-10T01:16:54;16.40;;;6.60;;
40252;SDS011;25972;51.854;4.534;2023-05-10T01:19:23;19.73;;;7.28;;
40252;SDS011;25972;51.854;4.534;2023-05-10T01:21:55;18.52;;;7.97;;
40252;SDS011;25972;51.854;4.534;2023-05-10T01:36:55;18.90;;;7.63;;
40252;SDS011;25972;51.854;4.534;2023-05-10T01:40:26;18.02;;;7.32;;
40252;SDS011;25972;51.854;4.534;2023-05-10T01:42:40;24.58;;;8.02;;
40252;SDS011;25972;51.854;4.534;2023-05-10T01:47:42;20.98;;;7.75;;
40252;SDS011;25972;51.854;4.534;2023-05-10T01:50:10;23.35;;;8.10;;
40252;SDS011;25972;51.854;4.534;2023-05-10T01:52:44;21.95;;;7.88;;
40252;SDS011;25972;51.854;4.534;2023-05-10T01:55:18;21.65;;;6.97;;
40252;SDS011;25972;51.854;4.534;2023-05-10T01:57:46;17.92;;;6.65;;
40252;SDS011;25972;51.854;4.534;2023-05-10T02:00:16;20.90;;;7.82;;
40252;SDS011;25972;51.854;4.534;2023-05-10T02:02:47;21.98;;;7.13;;
40252;SDS011;25972;51.854;4.534;2023-05-10T02:05:15;18.85;;;7.63;;
40252;SDS011;25972;51.854;4.534;2023-05-10T02:07:42;19.40;;;7.70;;
40252;SDS011;25972;51.854;4.534;2023-05-10T02:10:09;22.10;;;7.45;;
40252;SDS011;25972;51.854;4.534;2023-05-10T02:12:37;16.88;;;7.07;;
40252;SDS011;25972;51.854;4.534;2023-05-10T02:15:07;17.52;;;7.47;;
40252;SDS011;25972;51.854;4.534;2023-05-10T02:17:35;19.92;;;7.43;;
40252;SDS011;25972;51.854;4.534;2023-05-10T02:20:05;14.88;;;6.25;;
40252;SDS011;25972;51.854;4.534;2023-05-10T02:22:33;18.23;;;7.53;;
40252;SDS011;25972;51.854;4.534;2023-05-10T02:25:01;24.85;;;8.50;;
40252;SDS011;25972;51.854;4.534;2023-05-10T02:27:28;20.77;;;7.68;;
40252;SDS011;25972;51.854;4.534;2023-05-10T02:29:55;15.77;;;6.75;;
40252;SDS011;25972;51.854;4.534;2023-05-10T02:32:24;20.85;;;7.97;;
40252;SDS011;25972;51.854;4.534;2023-05-10T02:34:52;22.25;;;7.40;;
40252;SDS011;25972;51.854;4.534;2023-05-10T02:37:18;19.77;;;6.82;;
40252;SDS011;25972;51.854;4.534;2023-05-10T02:39:47;19.65;;;7.30;;
40252;SDS011;25972;51.854;4.534;2023-05-10T02:42:22;19.90;;;7.35;;
40252;SDS011;25972;51.854;4.534;2023-05-10T02:44:53;19.23;;;7.40;;
40252;SDS011;25972;51.854;4.534;2023-05-10T02:47:22;19.00;;;6.95;;
40252;SDS011;25972;51.854;4.534;2023-05-10T02:49:48;20.05;;;7.85;;
40252;SDS011;25972;51.854;4.534;2023-05-10T02:52:15;16.40;;;6.75;;
40252;SDS011;25972;51.854;4.534;2023-05-10T02:54:48;24.55;;;8.00;;
40252;SDS011;25972;51.854;4.534;2023-05-10T02:57:17;19.42;;;7.45;;
40252;SDS011;25972;51.854;4.534;2023-05-10T02:59:51;20.98;;;7.65;;
40252;SDS011;25972;51.854;4.534;2023-05-10T03:02:17;19.25;;;7.22;;
40252;SDS011;25972;51.854;4.534;2023-05-10T03:04:43;14.75;;;6.57;;
40252;SDS011;25972;51.854;4.534;2023-05-10T03:07:09;14.70;;;6.53;;
40252;SDS011;25972;51.854;4.534;2023-05-10T03:09:35;17.73;;;8.00;;
40252;SDS011;25972;51.854;4.534;2023-05-10T03:12:11;20.50;;;6.97;;
40252;SDS011;25972;51.854;4.534;2023-05-10T03:14:51;19.38;;;7.22;;
40252;SDS011;25972;51.854;4.534;2023-05-10T03:17:30;20.17;;;7.10;;
40252;SDS011;25972;51.854;4.534;2023-05-10T03:20:25;18.90;;;7.63;;
40252;SDS011;25972;51.854;4.534;2023-05-10T03:26:00;20.42;;;8.07;;
40252;SDS011;25972;51.854;4.534;2023-05-10T03:28:27;18.95;;;8.35;;
40252;SDS011;25972;51.854;4.534;2023-05-10T03:30:53;22.58;;;8.77;;
40252;SDS011;25972;51.854;4.534;2023-05-10T03:33:20;18.08;;;8.27;;
40252;SDS011;25972;51.854;4.534;2023-05-10T03:35:46;21.83;;;8.90;;
40252;SDS011;25972;51.854;4.534;2023-05-10T03:38:13;20.00;;;9.68;;
40252;SDS011;25972;51.854;4.534;2023-05-10T03:40:39;21.20;;;8.90;;
40252;SDS011;25972;51.854;4.534;2023-05-10T03:43:06;24.15;;;9.13;;
40252;SDS011;25972;51.854;4.534;2023-05-10T03:45:32;24.67;;;10.05;;
40252;SDS011;25972;51.854;4.534;2023-05-10T03:47:59;24.83;;;10.20;;
40252;SDS011;25972;51.854;4.534;2023-05-10T03:50:25;24.88;;;9.93;;
40252;SDS011;25972;51.854;4.534;2023-05-10T03:52:52;19.75;;;8.68;;
40252;SDS011;25972;51.854;4.534;2023-05-10T03:55:18;19.85;;;8.32;;
40252;SDS011;25972;51.854;4.534;2023-05-10T03:57:45;15.93;;;7.72;;
40252;SDS011;25972;51.854;4.534;2023-05-10T04:00:11;19.20;;;8.57;;
40252;SDS011;25972;51.854;4.534;2023-05-10T04:02:40;20.88;;;9.20;;
40252;SDS011;25972;51.854;4.534;2023-05-10T04:05:10;19.80;;;7.80;;
40252;SDS011;25972;51.854;4.534;2023-05-10T04:07:36;22.70;;;9.40;;
40252;SDS011;25972;51.854;4.534;2023-05-10T04:10:02;19.08;;;9.18;;
40252;SDS011;25972;51.854;4.534;2023-05-10T04:12:28;20.67;;;10.35;;
40252;SDS011;25972;51.854;4.534;2023-05-10T04:14:55;20.65;;;8.88;;
40252;SDS011;25972;51.854;4.534;2023-05-10T04:17:21;24.40;;;10.38;;
40252;SDS011;25972;51.854;4.534;2023-05-10T04:19:47;22.98;;;9.85;;
40252;SDS011;25972;51.854;4.534;2023-05-10T04:22:13;23.20;;;9.90;;
40252;SDS011;25972;51.854;4.534;2023-05-10T04:24:39;26.77;;;11.48;;
40252;SDS011;25972;51.854;4.534;2023-05-10T04:27:06;27.92;;;11.23;;
40252;SDS011;25972;51.854;4.534;2023-05-10T04:29:32;28.25;;;10.35;;
40252;SDS011;25972;51.854;4.534;2023-05-10T04:31:58;24.33;;;11.07;;
40252;SDS011;25972;51.854;4.534;2023-05-10T04:34:24;25.70;;;12.15;;
40252;SDS011;25972;51.854;4.534;2023-05-10T04:36:50;27.05;;;11.98;;
40252;SDS011;25972;51.854;4.534;2023-05-10T04:39:17;25.75;;;10.98;;
40252;SDS011;25972;51.854;4.534;2023-05-10T04:41:43;26.55;;;11.32;;
40252;SDS011;25972;51.854;4.534;2023-05-10T04:44:09;27.35;;;11.15;;
40252;SDS011;25972;51.854;4.534;2023-05-10T04:46:35;26.80;;;10.60;;
40252;SDS011;25972;51.854;4.534;2023-05-10T04:49:02;28.73;;;11.73;;
40252;SDS011;25972;51.854;4.534;2023-05-10T04:51:28;25.88;;;9.93;;
40252;SDS011;25972;51.854;4.534;2023-05-10T04:53:54;27.02;;;9.68;;
40252;SDS011;25972;51.854;4.534;2023-05-10T04:56:20;30.35;;;10.68;;
40252;SDS011;25972;51.854;4.534;2023-05-10T04:58:47;24.38;;;10.00;;
40252;SDS011;25972;51.854;4.534;2023-05-10T05:01:15;27.25;;;10.25;;
40252;SDS011;25972;51.854;4.534;2023-05-10T05:03:41;22.60;;;9.55;;
40252;SDS011;25972;51.854;4.534;2023-05-10T05:06:07;32.38;;;11.00;;
40252;SDS011;25972;51.854;4.534;2023-05-10T05:08:33;26.17;;;9.98;;
40252;SDS011;25972;51.854;4.534;2023-05-10T05:10:59;23.42;;;9.15;;
40252;SDS011;25972;51.854;4.534;2023-05-10T05:13:25;17.35;;;8.77;;
40252;SDS011;25972;51.854;4.534;2023-05-10T05:15:51;16.70;;;7.43;;
40252;SDS011;25972;51.854;4.534;2023-05-10T05:18:18;20.70;;;7.72;;
40252;SDS011;25972;51.854;4.534;2023-05-10T05:20:44;18.08;;;7.30;;
40252;SDS011;25972;51.854;4.534;2023-05-10T05:23:11;12.82;;;5.88;;
40252;SDS011;25972;51.854;4.534;2023-05-10T05:25:37;12.20;;;5.75;;
40252;SDS011;25972;51.854;4.534;2023-05-10T05:28:03;19.23;;;6.57;;
40252;SDS011;25972;51.854;4.534;2023-05-10T05:30:29;15.48;;;6.68;;
40252;SDS011;25972;51.854;4.534;2023-05-10T05:32:55;12.52;;;5.32;;
40252;SDS011;25972;51.854;4.534;2023-05-10T05:35:21;14.25;;;6.72;;
40252;SDS011;25972;51.854;4.534;2023-05-10T05:37:48;13.63;;;6.65;;
40252;SDS011;25972;51.854;4.534;2023-05-10T05:40:15;18.80;;;7.18;;
40252;SDS011;25972;51.854;4.534;2023-05-10T05:42:41;16.13;;;6.97;;
40252;SDS011;25972;51.854;4.534;2023-05-10T05:45:07;16.85;;;7.60;;
40252;SDS011;25972;51.854;4.534;2023-05-10T05:47:34;20.70;;;7.38;;
40252;SDS011;25972;51.854;4.534;2023-05-10T05:50:00;17.05;;;7.72;;
40252;SDS011;25972;51.854;4.534;2023-05-10T05:52:26;16.30;;;6.97;;
40252;SDS011;25972;51.854;4.534;2023-05-10T05:54:52;19.55;;;7.40;;
40252;SDS011;25972;51.854;4.534;2023-05-10T05:57:18;17.25;;;7.05;;
40252;SDS011;25972;51.854;4.534;2023-05-10T05:59:45;20.27;;;7.07;;
40252;SDS011;25972;51.854;4.534;2023-05-10T06:02:11;19.80;;;7.50;;
40252;SDS011;25972;51.854;4.534;2023-05-10T06:04:37;15.80;;;6.57;;
40252;SDS011;25972;51.854;4.534;2023-05-10T06:07:03;16.65;;;6.85;;
40252;SDS011;25972;51.854;4.534;2023-05-10T06:09:30;20.88;;;7.25;;
40252;SDS011;25972;51.854;4.534;2023-05-10T06:11:56;21.77;;;7.15;;
40252;SDS011;25972;51.854;4.534;2023-05-10T06:14:22;16.58;;;7.10;;
40252;SDS011;25972;51.854;4.534;2023-05-10T06:16:48;16.58;;;7.32;;
40252;SDS011;25972;51.854;4.534;2023-05-10T06:19:16;17.38;;;6.57;;
40252;SDS011;25972;51.854;4.534;2023-05-10T06:21:42;16.50;;;6.88;;
40252;SDS011;25972;51.854;4.534;2023-05-10T06:24:08;16.77;;;6.80;;
40252;SDS011;25972;51.854;4.534;2023-05-10T06:26:34;16.67;;;6.85;;
40252;SDS011;25972;51.854;4.534;2023-05-10T06:29:02;19.92;;;8.00;;
40252;SDS011;25972;51.854;4.534;2023-05-10T06:31:28;22.13;;;7.80;;
40252;SDS011;25972;51.854;4.534;2023-05-10T06:33:54;22.63;;;8.77;;
40252;SDS011;25972;51.854;4.534;2023-05-10T06:36:20;19.33;;;7.65;;
40252;SDS011;25972;51.854;4.534;2023-05-10T06:38:47;16.77;;;8.02;;
40252;SDS011;25972;51.854;4.534;2023-05-10T06:41:14;17.40;;;7.78;;
40252;SDS011;25972;51.854;4.534;2023-05-10T06:43:41;19.33;;;7.47;;
40252;SDS011;25972;51.854;4.534;2023-05-10T06:46:08;18.95;;;7.60;;
40252;SDS011;25972;51.854;4.534;2023-05-10T06:48:34;15.30;;;6.40;;
40252;SDS011;25972;51.854;4.534;2023-05-10T06:51:00;13.55;;;5.90;;
40252;SDS011;25972;51.854;4.534;2023-05-10T06:53:26;14.25;;;6.15;;
40252;SDS011;25972;51.854;4.534;2023-05-10T06:55:52;12.98;;;6.10;;
40252;SDS011;25972;51.854;4.534;2023-05-10T06:58:18;12.88;;;6.05;;
40252;SDS011;25972;51.854;4.534;2023-05-10T07:00:44;14.88;;;5.85;;
40252;SDS011;25972;51.854;4.534;2023-05-10T07:03:15;14.10;;;6.18;;
40252;SDS011;25972;51.854;4.534;2023-05-10T07:05:41;12.65;;;5.80;;
40252;SDS011;25972;51.854;4.534;2023-05-10T07:08:07;11.13;;;5.07;;
40252;SDS011;25972;51.854;4.534;2023-05-10T07:10:33;10.50;;;5.65;;
40252;SDS011;25972;51.854;4.534;2023-05-10T07:12:59;11.65;;;4.90;;
40252;SDS011;25972;51.854;4.534;2023-05-10T07:15:26;11.90;;;5.15;;
40252;SDS011;25972;51.854;4.534;2023-05-10T07:17:54;10.00;;;4.45;;
40252;SDS011;25972;51.854;4.534;2023-05-10T07:20:20;10.25;;;4.50;;
40252;SDS011;25972;51.854;4.534;2023-05-10T07:22:47;12.43;;;4.85;;
40252;SDS011;25972;51.854;4.534;2023-05-10T07:25:13;9.77;;;5.13;;
40252;SDS011;25972;51.854;4.534;2023-05-10T07:27:39;10.32;;;4.13;;
40252;SDS011;25972;51.854;4.534;2023-05-10T07:30:06;12.07;;;4.80;;
40252;SDS011;25972;51.854;4.534;2023-05-10T07:32:32;9.25;;;4.20;;
40252;SDS011;25972;51.854;4.534;2023-05-10T07:34:58;11.77;;;4.78;;
40252;SDS011;25972;51.854;4.534;2023-05-10T07:37:24;11.68;;;4.97;;
40252;SDS011;25972;51.854;4.534;2023-05-10T07:39:50;10.25;;;5.05;;
40252;SDS011;25972;51.854;4.534;2023-05-10T07:42:16;7.82;;;4.22;;
40252;SDS011;25972;51.854;4.534;2023-05-10T07:44:41;10.02;;;5.20;;
40252;SDS011;25972;51.854;4.534;2023-05-10T07:47:08;12.38;;;5.55;;
40252;SDS011;25972;51.854;4.534;2023-05-10T07:49:34;9.65;;;4.53;;
40252;SDS011;25972;51.854;4.534;2023-05-10T07:52:02;11.30;;;5.22;;
40252;SDS011;25972;51.854;4.534;2023-05-10T07:54:28;7.85;;;4.32;;
40252;SDS011;25972;51.854;4.534;2023-05-10T07:56:54;8.05;;;4.25;;
40252;SDS011;25972;51.854;4.534;2023-05-10T07:59:20;7.97;;;4.07;;
40252;SDS011;25972;51.854;4.534;2023-05-10T08:01:46;11.95;;;4.32;;
40252;SDS011;25972;51.854;4.534;2023-05-10T08:04:12;9.98;;;3.75;;
40252;SDS011;25972;51.854;4.534;2023-05-10T08:06:38;11.25;;;4.28;;
40252;SDS011;25972;51.854;4.534;2023-05-10T08:09:05;8.77;;;4.68;;
40252;SDS011;25972;51.854;4.534;2023-05-10T08:11:31;10.13;;;4.38;;
40252;SDS011;25972;51.854;4.534;2023-05-10T08:13:58;8.52;;;4.20;;
40252;SDS011;25972;51.854;4.534;2023-05-10T08:16:24;8.57;;;3.97;;
40252;SDS011;25972;51.854;4.534;2023-05-10T08:18:51;6.97;;;3.22;;
40252;SDS011;25972;51.854;4.534;2023-05-10T08:21:17;6.90;;;3.75;;
40252;SDS011;25972;51.854;4.534;2023-05-10T08:23:43;6.25;;;2.95;;
40252;SDS011;25972;51.854;4.534;2023-05-10T08:26:09;6.68;;;3.30;;
40252;SDS011;25972;51.854;4.534;2023-05-10T08:28:35;6.13;;;2.97;;
40252;SDS011;25972;51.854;4.534;2023-05-10T08:31:01;4.75;;;2.47;;
40252;SDS011;25972;51.854;4.534;2023-05-10T08:33:27;7.45;;;3.38;;
40252;SDS011;25972;51.854;4.534;2023-05-10T08:35:53;6.20;;;3.00;;
40252;SDS011;25972;51.854;4.534;2023-05-10T08:38:19;7.22;;;3.30;;
40252;SDS011;25972;51.854;4.534;2023-05-10T08:40:45;7.93;;;3.33;;
40252;SDS011;25972;51.854;4.534;2023-05-10T08:43:14;6.22;;;3.35;;
40252;SDS011;25972;51.854;4.534;2023-05-10T08:45:44;5.63;;;2.67;;
40252;SDS011;25972;51.854;4.534;2023-05-10T08:48:11;7.13;;;3.13;;
40252;SDS011;25972;51.854;4.534;2023-05-10T08:50:39;7.28;;;2.67;;
40252;SDS011;25972;51.854;4.534;2023-05-10T08:53:10;7.85;;;2.97;;
40252;SDS011;25972;51.854;4.534;2023-05-10T08:55:39;6.88;;;2.80;;
40252;SDS011;25972;51.854;4.534;2023-05-10T08:58:08;6.38;;;2.83;;
40252;SDS011;25972;51.854;4.534;2023-05-10T09:00:34;7.22;;;3.30;;
40252;SDS011;25972;51.854;4.534;2023-05-10T09:03:02;5.18;;;2.42;;
40252;SDS011;25972;51.854;4.534;2023-05-10T09:05:30;5.15;;;2.47;;
40252;SDS011;25972;51.854;4.534;2023-05-10T09:07:57;7.38;;;2.90;;
40252;SDS011;25972;51.854;4.534;2023-05-10T09:10:26;7.85;;;3.38;;
40252;SDS011;25972;51.854;4.534;2023-05-10T09:12:53;6.40;;;3.13;;
40252;SDS011;25972;51.854;4.534;2023-05-10T09:15:21;7.28;;;3.33;;
40252;SDS011;25972;51.854;4.534;2023-05-10T09:17:47;9.10;;;3.72;;
40252;SDS011;25972;51.854;4.534;2023-05-10T09:20:15;7.53;;;3.65;;
40252;SDS011;25972;51.854;4.534;2023-05-10T09:22:43;7.78;;;3.53;;
40252;SDS011;25972;51.854;4.534;2023-05-10T09:25:10;6.75;;;3.15;;
40252;SDS011;25972;51.854;4.534;2023-05-10T09:27:41;7.07;;;3.10;;
40252;SDS011;25972;51.854;4.534;2023-05-10T09:30:10;7.95;;;3.50;;
40252;SDS011;25972;51.854;4.534;2023-05-10T09:32:48;6.10;;;2.80;;
40252;SDS011;25972;51.854;4.534;2023-05-10T09:35:17;5.93;;;2.88;;
40252;SDS011;25972;51.854;4.534;2023-05-10T09:37:48;5.05;;;2.40;;
40252;SDS011;25972;51.854;4.534;2023-05-10T09:40:20;5.78;;;2.53;;
40252;SDS011;25972;51.854;4.534;2023-05-10T09:42:51;5.35;;;2.35;;
40252;SDS011;25972;51.854;4.534;2023-05-10T09:45:19;4.90;;;2.15;;
40252;SDS011;25972;51.854;4.534;2023-05-10T09:47:45;4.70;;;2.42;;
40252;SDS011;25972;51.854;4.534;2023-05-10T09:50:11;4.50;;;2.28;;
40252;SDS011;25972;51.854;4.534;2023-05-10T09:55:43;5.35;;;2.35;;
40252;SDS011;25972;51.854;4.534;2023-05-10T09:58:11;6.97;;;2.63;;
40252;SDS011;25972;51.854;4.534;2023-05-10T10:00:38;7.95;;;2.70;;
40252;SDS011;25972;51.854;4.534;2023-05-10T10:03:05;4.18;;;2.30;;
40252;SDS011;25972;51.854;4.534;2023-05-10T10:05:39;5.32;;;2.35;;
40252;SDS011;25972;51.854;4.534;2023-05-10T10:08:07;5.95;;;2.58;;
40252;SDS011;25972;51.854;4.534;2023-05-10T10:10:33;6.68;;;2.83;;
40252;SDS011;25972;51.854;4.534;2023-05-10T10:13:01;6.20;;;2.50;;
40252;SDS011;25972;51.854;4.534;2023-05-10T10:15:28;5.05;;;2.30;;
40252;SDS011;25972;51.854;4.534;2023-05-10T10:17:53;6.47;;;2.70;;
40252;SDS011;25972;51.854;4.534;2023-05-10T10:20:20;7.70;;;3.25;;
40252;SDS011;25972;51.854;4.534;2023-05-10T10:22:47;9.68;;;3.30;;
40252;SDS011;25972;51.854;4.534;2023-05-10T10:25:14;7.18;;;3.35;;
40252;SDS011;25972;51.854;4.534;2023-05-10T10:27:54;8.77;;;3.53;;
40252;SDS011;25972;51.854;4.534;2023-05-10T10:30:35;8.40;;;3.97;;
40252;SDS011;25972;51.854;4.534;2023-05-10T10:35:55;7.47;;;3.42;;
40252;SDS011;25972;51.854;4.534;2023-05-10T10:38:35;8.27;;;3.28;;
40252;SDS011;25972;51.854;4.534;2023-05-10T10:41:10;8.38;;;3.95;;
40252;SDS011;25972;51.854;4.534;2023-05-10T10:44:22;6.05;;;3.28;;
40252;SDS011;25972;51.854;4.534;2023-05-10T10:55:00;8.23;;;3.95;;
40252;SDS011;25972;51.854;4.534;2023-05-10T10:57:26;8.68;;;3.88;;
40252;SDS011;25972;51.854;4.534;2023-05-10T11:05:42;7.38;;;3.38;;
40252;SDS011;25972;51.854;4.534;2023-05-10T11:08:30;7.35;;;3.22;;
40252;SDS011;25972;51.854;4.534;2023-05-10T11:11:06;5.70;;;3.20;;
40252;SDS011;25972;51.854;4.534;2023-05-10T11:13:33;5.05;;;2.50;;
40252;SDS011;25972;51.854;4.534;2023-05-10T11:16:19;7.72;;;3.35;;
40252;SDS011;25972;51.854;4.534;2023-05-10T11:21:21;5.78;;;2.60;;
40252;SDS011;25972;51.854;4.534;2023-05-10T11:23:57;6.32;;;3.35;;
40252;SDS011;25972;51.854;4.534;2023-05-10T11:26:25;6.07;;;2.92;;
40252;SDS011;25972;51.854;4.534;2023-05-10T11:28:55;6.35;;;3.15;;
40252;SDS011;25972;51.854;4.534;2023-05-10T11:31:22;6.25;;;3.08;;
40252;SDS011;25972;51.854;4.534;2023-05-10T11:33:49;5.70;;;2.72;;
40252;SDS011;25972;51.854;4.534;2023-05-10T11:36:24;8.27;;;2.92;;
40252;SDS011;25972;51.854;4.534;2023-05-10T11:38:52;5.35;;;2.25;;
40252;SDS011;25972;51.854;4.534;2023-05-10T11:41:19;6.80;;;3.03;;
40252;SDS011;25972;51.854;4.534;2023-05-10T11:43:52;4.95;;;2.45;;
40252;SDS011;25972;51.854;4.534;2023-05-10T11:46:19;6.70;;;2.90;;
40252;SDS011;25972;51.854;4.534;2023-05-10T11:48:50;5.68;;;2.53;;
40252;SDS011;25972;51.854;4.534;2023-05-10T11:51:21;5.13;;;2.88;;
40252;SDS011;25972;51.854;4.534;2023-05-10T11:53:48;7.00;;;3.20;;
40252;SDS011;25972;51.854;4.534;2023-05-10T11:56:15;6.57;;;2.97;;
40252;SDS011;25972;51.854;4.534;2023-05-10T11:58:41;8.02;;;2.80;;
40252;SDS011;25972;51.854;4.534;2023-05-10T12:01:07;7.13;;;3.42;;
40252;SDS011;25972;51.854;4.534;2023-05-10T12:03:34;5.63;;;2.75;;
40252;SDS011;25972;51.854;4.534;2023-05-10T12:06:01;6.30;;;2.50;;
40252;SDS011;25972;51.854;4.534;2023-05-10T12:08:28;5.30;;;2.30;;
40252;SDS011;25972;51.854;4.534;2023-05-10T12:11:06;4.65;;;2.00;;
40252;SDS011;25972;51.854;4.534;2023-05-10T12:13:37;5.15;;;2.50;;
40252;SDS011;25972;51.854;4.534;2023-05-10T12:18:45;3.80;;;2.10;;
40252;SDS011;25972;51.854;4.534;2023-05-10T12:21:16;5.07;;;2.40;;
40252;SDS011;25972;51.854;4.534;2023-05-10T12:23:43;4.25;;;2.03;;
40252;SDS011;25972;51.854;4.534;2023-05-10T12:26:11;7.15;;;2.50;;
40252;SDS011;25972;51.854;4.534;2023-05-10T12:28:37;6.45;;;2.55;;
40252;SDS011;25972;51.854;4.534;2023-05-10T12:31:03;7.25;;;2.72;;
40252;SDS011;25972;51.854;4.534;2023-05-10T12:33:37;5.30;;;2.25;;
40252;SDS011;25972;51.854;4.534;2023-05-10T12:36:11;4.70;;;1.90;;
40252;SDS011;25972;51.854;4.534;2023-05-10T12:38:39;6.10;;;2.15;;
40252;SDS011;25972;51.854;4.534;2023-05-10T12:41:09;5.15;;;2.20;;
40252;SDS011;25972;51.854;4.534;2023-05-10T12:43:36;3.75;;;1.80;;
40252;SDS011;25972;51.854;4.534;2023-05-10T12:46:09;4.85;;;2.20;;
40252;SDS011;25972;51.854;4.534;2023-05-10T12:48:37;6.07;;;1.75;;
40252;SDS011;25972;51.854;4.534;2023-05-10T12:51:05;3.10;;;1.75;;
40252;SDS011;25972;51.854;4.534;2023-05-10T12:53:42;4.07;;;1.83;;
40252;SDS011;25972;51.854;4.534;2023-05-10T12:56:10;3.90;;;1.85;;
40252;SDS011;25972;51.854;4.534;2023-05-10T12:58:36;5.47;;;2.22;;
40252;SDS011;25972;51.854;4.534;2023-05-10T13:01:03;5.20;;;2.60;;
40252;SDS011;25972;51.854;4.534;2023-05-10T13:06:00;5.70;;;2.85;;
40252;SDS011;25972;51.854;4.534;2023-05-10T13:08:26;6.57;;;2.50;;
40252;SDS011;25972;51.854;4.534;2023-05-10T13:10:54;7.95;;;2.70;;
40252;SDS011;25972;51.854;4.534;2023-05-10T13:13:20;5.13;;;2.38;;
40252;SDS011;25972;51.854;4.534;2023-05-10T13:15:46;5.60;;;2.67;;
40252;SDS011;25972;51.854;4.534;2023-05-10T13:18:12;5.63;;;2.53;;
40252;SDS011;25972;51.854;4.534;2023-05-10T13:20:38;5.63;;;2.22;;
40252;SDS011;25972;51.854;4.534;2023-05-10T13:23:04;4.82;;;2.20;;
40252;SDS011;25972;51.854;4.534;2023-05-10T13:25:30;6.13;;;2.75;;
40252;SDS011;25972;51.854;4.534;2023-05-10T13:30:25;4.45;;;2.20;;
40252;SDS011;25972;51.854;4.534;2023-05-10T13:32:51;4.57;;;2.22;;
40252;SDS011;25972;51.854;4.534;2023-05-10T13:35:17;5.05;;;2.40;;
40252;SDS011;25972;51.854;4.534;2023-05-10T13:37:43;6.30;;;2.53;;
40252;SDS011;25972;51.854;4.534;2023-05-10T13:40:09;4.35;;;2.10;;
40252;SDS011;25972;51.854;4.534;2023-05-10T13:42:36;4.65;;;1.90;;
40252;SDS011;25972;51.854;4.534;2023-05-10T13:45:02;4.57;;;1.85;;
40252;SDS011;25972;51.854;4.534;2023-05-10T13:47:29;4.72;;;1.63;;
40252;SDS011;25972;51.854;4.534;2023-05-10T13:49:55;2.42;;;1.40;;
40252;SDS011;25972;51.854;4.534;2023-05-10T13:52:21;3.58;;;1.70;;
40252;SDS011;25972;51.854;4.534;2023-05-10T13:54:47;5.28;;;1.85;;
40252;SDS011;25972;51.854;4.534;2023-05-10T13:57:13;3.50;;;1.73;;
40252;SDS011;25972;51.854;4.534;2023-05-10T13:59:41;3.30;;;1.52;;
40252;SDS011;25972;51.854;4.534;2023-05-10T14:02:07;4.32;;;1.63;;
40252;SDS011;25972;51.854;4.534;2023-05-10T14:04:33;3.25;;;1.80;;
40252;SDS011;25972;51.854;4.534;2023-05-10T14:07:00;3.58;;;2.00;;
40252;SDS011;25972;51.854;4.534;2023-05-10T14:09:26;4.22;;;1.65;;
40252;SDS011;25972;51.854;4.534;2023-05-10T14:11:52;4.30;;;1.88;;
40252;SDS011;25972;51.854;4.534;2023-05-10T14:14:18;4.78;;;2.03;;
40252;SDS011;25972;51.854;4.534;2023-05-10T14:16:44;4.55;;;1.67;;
40252;SDS011;25972;51.854;4.534;2023-05-10T14:19:10;2.50;;;1.77;;
40252;SDS011;25972;51.854;4.534;2023-05-10T14:21:36;4.93;;;2.08;;
40252;SDS011;25972;51.854;4.534;2023-05-10T14:24:02;4.70;;;1.83;;
40252;SDS011;25972;51.854;4.534;2023-05-10T14:26:28;4.03;;;1.80;;
40252;SDS011;25972;51.854;4.534;2023-05-10T14:28:54;2.75;;;1.63;;
40252;SDS011;25972;51.854;4.534;2023-05-10T14:31:20;3.20;;;1.80;;
40252;SDS011;25972;51.854;4.534;2023-05-10T14:33:48;5.90;;;2.00;;
40252;SDS011;25972;51.854;4.534;2023-05-10T14:36:14;4.38;;;1.58;;
40252;SDS011;25972;51.854;4.534;2023-05-10T14:38:40;3.58;;;1.67;;
40252;SDS011;25972;51.854;4.534;2023-05-10T14:41:06;5.00;;;1.90;;
40252;SDS011;25972;51.854;4.534;2023-05-10T14:43:32;4.15;;;1.98;;
40252;SDS011;25972;51.854;4.534;2023-05-10T14:45:58;5.47;;;2.00;;
40252;SDS011;25972;51.854;4.534;2023-05-10T14:48:24;6.75;;;2.65;;
40252;SDS011;25972;51.854;4.534;2023-05-10T14:50:50;6.65;;;2.30;;
40252;SDS011;25972;51.854;4.534;2023-05-10T14:53:18;5.97;;;2.60;;
40252;SDS011;25972;51.854;4.534;2023-05-10T14:55:43;5.93;;;2.85;;
40252;SDS011;25972;51.854;4.534;2023-05-10T14:58:09;4.25;;;2.05;;
40252;SDS011;25972;51.854;4.534;2023-05-10T15:00:35;4.60;;;2.50;;
40252;SDS011;25972;51.854;4.534;2023-05-10T15:03:02;5.80;;;2.50;;
40252;SDS011;25972;51.854;4.534;2023-05-10T15:05:28;4.72;;;2.10;;
40252;SDS011;25972;51.854;4.534;2023-05-10T15:07:54;5.03;;;2.50;;
40252;SDS011;25972;51.854;4.534;2023-05-10T15:10:20;4.50;;;2.30;;
40252;SDS011;25972;51.854;4.534;2023-05-10T15:12:46;3.95;;;2.10;;
40252;SDS011;25972;51.854;4.534;2023-05-10T15:15:11;6.05;;;2.80;;
40252;SDS011;25972;51.854;4.534;2023-05-10T15:17:37;6.05;;;2.53;;
40252;SDS011;25972;51.854;4.534;2023-05-10T15:20:03;6.13;;;2.40;;
40252;SDS011;25972;51.854;4.534;2023-05-10T15:22:30;6.28;;;2.63;;
40252;SDS011;25972;51.854;4.534;2023-05-10T15:24:57;5.68;;;2.72;;
40252;SDS011;25972;51.854;4.534;2023-05-10T15:27:24;7.45;;;2.90;;
40252;SDS011;25972;51.854;4.534;2023-05-10T15:29:51;6.95;;;3.05;;
40252;SDS011;25972;51.854;4.534;2023-05-10T15:32:17;5.03;;;2.40;;